Adventure of The Seas — C6SA3 — position and weather

sailwx.info

Track history (hours):
 
Tides and Currents Weather Stations Pressure Air Temp Water Temp Dewpoint Dewpoint Depression Visibility Wind Speed Wind Dir Waves Ship Positions

Adventure of The Seas

Operator: Royal Caribbean Cruises Ltd

Last reported at 2015-Aug-31 08:08 UTC. Time now 2015-Sep-01 03:49 UTC.
Position N 17°36' W 063°07'.

Type: Passenger vessel. MMSI: 311263000.

Date/timePositionNaut miles runAvg speedWind from/ knotsBaromVisibWave heightAir tempDewpointWater temp
2015-Aug-31 08:08N 17°36' W 063°07'610.9
2015-Aug-31 07:33N 17°42' W 063°09'1110.7
2015-Aug-31 06:31N 17°47' W 063°19'8610.8
2015-Aug-30 22:33N 18°11' W 064°46'  
2015-Aug-23 22:26N 17°41' W 063°07'1415.7
2015-Aug-23 21:33N 17°55' W 063°06'7 0.7
2015-Aug-23 11:28N 18°01' W 063°03'1313.8
2015-Aug-23 10:32N 18°01' W 063°16'1716.7
2015-Aug-23 09:30N 18°03' W 063°34'7017.6
2015-Aug-23 05:33N 18°12' W 064°47'4 0.2
2015-Aug-22 02:33N 18°08' W 064°50'  
Track history (hours):
 
Tides and Currents Weather Stations Pressure Air Temp Water Temp Dewpoint Dewpoint Depression Visibility Wind Speed Wind Dir Waves Ship Positions

Adventure of The Seas

Operator: Royal Caribbean Cruises Ltd

Last reported at 2015-Aug-31 08:08 UTC. Time now 2015-Sep-01 03:49 UTC.
Position N 17°36' W 063°07'.

Type: Passenger vessel. MMSI: 311263000.

Date/timePositionNaut miles runAvg speedWind from/ knotsBaromVisibWave heightAir tempDewpointWater temp
2015-Aug-31 08:08N 17°36' W 063°07'610.9
2015-Aug-31 07:33N 17°42' W 063°09'1110.7
2015-Aug-31 06:31N 17°47' W 063°19'8610.8
2015-Aug-30 22:33N 18°11' W 064°46'  
2015-Aug-23 22:26N 17°41' W 063°07'1415.7
2015-Aug-23 21:33N 17°55' W 063°06'7 0.7
2015-Aug-23 11:28N 18°01' W 063°03'1313.8
2015-Aug-23 10:32N 18°01' W 063°16'1716.7
2015-Aug-23 09:30N 18°03' W 063°34'7017.6
2015-Aug-23 05:33N 18°12' W 064°47'4 0.2
2015-Aug-22 02:33N 18°08' W 064°50'  

Dump ship's entire track history